Time;durP1;ratioP1;P1;durP2;ratioP2;P2;SDS_P1;SDS_P2;PMS_P1;PMS_P2;Temp;Humidity;BMP_temperature;BMP_pressure;BME280_temperature;BME280_humidity;BME280_pressure;Samples;Min_cycle;Max_cycle;Signal;HPM_P1;HPM_P2
2023/07/29 00:01:24;;;;;;;6.23;5.73;;;17.70;99.90;;;;;;5024382;28;20488;-60
2023/07/29 00:03:52;;;;;;;6.57;6.07;;;17.70;99.90;;;;;;5018668;28;20498;-62
2023/07/29 00:06:20;;;;;;;6.73;6.23;;;17.70;99.90;;;;;;5022116;28;20555;-60
2023/07/29 00:08:50;;;;;;;6.80;6.20;;;17.70;99.90;;;;;;5021887;28;20468;-60
2023/07/29 00:11:18;;;;;;;6.60;6.00;;;17.60;99.90;;;;;;5018704;28;20556;-60
2023/07/29 00:13:47;;;;;;;6.40;5.90;;;17.60;99.90;;;;;;5021663;28;20943;-59
2023/07/29 00:16:17;;;;;;;6.70;6.10;;;17.50;99.90;;;;;;5019669;28;20464;-64
2023/07/29 00:18:45;;;;;;;6.47;5.90;;;17.50;99.90;;;;;;5019335;28;20506;-60
2023/07/29 00:21:13;;;;;;;6.60;6.00;;;17.50;99.90;;;;;;5018657;28;20488;-60
2023/07/29 00:23:41;;;;;;;6.57;5.97;;;17.40;99.90;;;;;;5008361;28;20574;-60
2023/07/29 00:26:10;;;;;;;7.17;6.57;;;17.40;99.90;;;;;;5001329;28;20479;-60
2023/07/29 00:28:38;;;;;;;6.60;6.00;;;17.40;99.90;;;;;;5002711;28;20478;-60
2023/07/29 00:31:06;;;;;;;6.60;6.00;;;17.40;99.90;;;;;;5004381;28;20546;-60
2023/07/29 00:33:34;;;;;;;6.60;6.03;;;17.30;99.90;;;;;;5000749;28;20592;-60
2023/07/29 00:36:02;;;;;;;6.43;5.90;;;17.30;99.90;;;;;;5002190;28;20470;-60
2023/07/29 00:38:30;;;;;;;6.40;5.80;;;17.30;99.90;;;;;;5000510;28;20472;-60
2023/07/29 00:40:59;;;;;;;6.63;6.03;;;17.20;99.90;;;;;;5000837;28;20604;-60
2023/07/29 00:43:28;;;;;;;6.90;6.30;;;17.20;99.90;;;;;;4999084;28;20501;-60
2023/07/29 00:45:57;;;;;;;6.70;5.97;;;17.20;99.90;;;;;;5002244;28;20604;-60
2023/07/29 00:48:26;;;;;;;6.10;5.60;;;17.20;99.90;;;;;;4999252;28;20468;-60
2023/07/29 00:50:55;;;;;;;6.37;5.87;;;17.10;99.90;;;;;;4995279;28;20579;-60
2023/07/29 00:53:23;;;;;;;6.67;6.17;;;17.10;99.90;;;;;;4999089;28;20595;-62
2023/07/29 00:55:51;;;;;;;6.33;5.73;;;17.10;99.90;;;;;;5002396;28;20488;-60
2023/07/29 00:58:20;;;;;;;6.23;5.73;;;17.10;99.90;;;;;;4998818;28;20571;-60
2023/07/29 01:00:51;;;;;;;7.17;6.57;;;17.10;99.90;;;;;;5003017;28;20944;-60
2023/07/29 01:03:19;;;;;;;6.70;6.10;;;17.10;99.90;;;;;;5001601;28;20572;-60
2023/07/29 01:05:58;;;;;;;6.40;5.90;;;17.00;99.90;;;;;;5002845;28;20473;-60
2023/07/29 01:08:38;;;;;;;5.90;5.40;;;17.00;99.90;;;;;;5004620;28;20492;-59
2023/07/29 01:11:20;;;;;;;6.37;5.77;;;17.10;99.90;;;;;;5006172;28;21051;-60
2023/07/29 01:13:54;;;;;;;6.43;5.87;;;17.10;99.90;;;;;;4999960;28;20571;-60
2023/07/29 01:16:31;;;;;;;6.77;6.17;;;17.10;99.90;;;;;;4999839;28;20472;-60
2023/07/29 01:19:05;;;;;;;6.47;5.40;;;17.10;99.90;;;;;;5000612;28;20967;-59
2023/07/29 01:21:36;;;;;;;6.20;5.70;;;17.10;99.90;;;;;;5002430;28;20928;-60
2023/07/29 01:24:05;;;;;;;6.23;5.73;;;17.10;99.90;;;;;;5004489;28;20468;-60
2023/07/29 01:26:33;;;;;;;6.33;5.73;;;17.10;99.90;;;;;;5002358;28;20472;-60
2023/07/29 01:29:02;;;;;;;6.10;5.70;;;17.10;99.90;;;;;;5003947;28;20584;-60
2023/07/29 01:31:34;;;;;;;6.40;5.90;;;17.10;99.90;;;;;;5014840;28;20496;-60
2023/07/29 01:34:10;;;;;;;6.17;5.67;;;17.10;99.90;;;;;;5007119;28;20567;-59
2023/07/29 01:36:42;;;;;;;6.73;6.23;;;17.10;99.90;;;;;;5003742;28;20518;-60
2023/07/29 01:39:16;;;;;;;6.17;5.67;;;17.10;99.90;;;;;;5001783;28;20484;-60
2023/07/29 01:41:45;;;;;;;6.37;5.87;;;17.10;99.90;;;;;;4998724;28;20575;-65
2023/07/29 01:44:14;;;;;;;6.47;5.97;;;17.10;99.90;;;;;;4998654;28;20500;-59
2023/07/29 01:46:42;;;;;;;6.63;6.13;;;17.10;99.90;;;;;;5000625;28;20468;-60
2023/07/29 01:49:10;;;;;;;5.80;5.40;;;17.10;99.90;;;;;;4995813;28;21017;-59
2023/07/29 01:51:38;;;;;;;7.20;6.60;;;17.20;99.90;;;;;;4996318;28;20474;-60
2023/07/29 01:54:06;;;;;;;6.93;6.33;;;17.20;99.90;;;;;;5001430;28;20472;-60
2023/07/29 01:56:35;;;;;;;7.00;6.50;;;17.20;99.90;;;;;;4998799;28;20483;-60
2023/07/29 01:59:03;;;;;;;6.67;6.07;;;17.30;99.90;;;;;;5003370;28;20988;-60
2023/07/29 02:01:31;;;;;;;7.10;6.50;;;17.30;99.90;;;;;;5002567;28;20608;-60
2023/07/29 02:04:01;;;;;;;8.67;7.87;;;17.30;99.90;;;;;;5000463;28;20593;-60
2023/07/29 02:06:29;;;;;;;8.50;7.70;;;17.30;99.90;;;;;;5000754;28;21369;-60
2023/07/29 02:08:56;;;;;;;8.50;7.70;;;17.40;99.90;;;;;;5001404;28;21271;-60
2023/07/29 02:11:27;;;;;;;8.67;7.87;;;17.40;99.90;;;;;;5003560;28;20464;-60
2023/07/29 02:13:57;;;;;;;9.17;8.30;;;17.40;99.90;;;;;;5000504;28;20492;-59
2023/07/29 02:16:25;;;;;;;10.43;9.53;;;17.50;99.90;;;;;;5001544;28;20479;-60
2023/07/29 02:18:53;;;;;;;9.50;8.70;;;17.60;99.90;;;;;;4999219;28;20483;-60
2023/07/29 02:21:23;;;;;;;10.90;9.90;;;17.60;99.90;;;;;;5001441;28;20607;-60
2023/07/29 02:23:51;;;;;;;9.20;8.40;;;17.70;99.90;;;;;;4998623;28;20518;-60
2023/07/29 02:26:19;;;;;;;9.07;8.37;;;17.70;99.90;;;;;;4996023;28;20484;-60
2023/07/29 02:28:47;;;;;;;9.17;8.47;;;17.70;99.90;;;;;;4996054;28;20705;-60
2023/07/29 02:31:18;;;;;;;10.83;9.93;;;17.70;99.90;;;;;;4994630;28;20562;-60
2023/07/29 02:33:46;;;;;;;10.53;9.60;;;17.80;99.90;;;;;;4997356;28;20491;-60
2023/07/29 02:36:15;;;;;;;10.50;9.50;;;17.80;99.90;;;;;;4998343;28;20507;-60
2023/07/29 02:38:43;;;;;;;10.73;9.93;;;17.80;99.90;;;;;;5003608;28;21000;-60
2023/07/29 02:41:12;;;;;;;11.07;10.10;;;17.80;99.90;;;;;;5001951;28;20580;-60
2023/07/29 02:43:41;;;;;;;10.00;9.17;;;17.90;99.90;;;;;;4999954;28;21097;-60
2023/07/29 02:46:09;;;;;;;10.37;9.47;;;17.90;99.90;;;;;;5000205;28;20488;-60
2023/07/29 02:48:39;;;;;;;11.43;10.40;;;18.00;99.90;;;;;;4997196;28;20487;-60
2023/07/29 02:51:07;;;;;;;12.97;11.87;;;18.00;99.90;;;;;;5000306;28;20595;-60
2023/07/29 02:53:36;;;;;;;13.27;11.97;;;18.00;99.90;;;;;;5000539;28;20597;-60
2023/07/29 02:56:06;;;;;;;12.90;11.90;;;18.00;99.90;;;;;;4999182;28;20863;-60
2023/07/29 02:58:34;;;;;;;13.27;12.27;;;18.00;99.90;;;;;;4996323;28;20469;-60
2023/07/29 03:01:02;;;;;;;12.73;11.73;;;18.10;99.90;;;;;;4993490;28;20847;-62
2023/07/29 03:03:31;;;;;;;13.20;12.00;;;18.10;99.90;;;;;;4998602;28;20488;-60
2023/07/29 03:06:02;;;;;;;12.90;11.90;;;18.10;99.90;;;;;;4999311;28;20480;-60
2023/07/29 03:08:30;;;;;;;12.87;11.77;;;18.00;99.90;;;;;;4996639;28;20504;-60
2023/07/29 03:10:59;;;;;;;12.90;11.83;;;18.10;99.90;;;;;;5001908;28;20591;-60
2023/07/29 03:13:27;;;;;;;14.27;13.20;;;18.10;99.90;;;;;;4998901;28;20989;-60
2023/07/29 03:16:04;;;;;;;13.73;12.43;;;18.10;99.90;;;;;;5002679;28;20466;-62
2023/07/29 03:18:33;;;;;;;13.80;12.70;;;18.10;99.90;;;;;;5000240;28;20480;-60
2023/07/29 03:21:02;;;;;;;14.50;13.30;;;18.10;99.90;;;;;;5000602;28;20572;-60
2023/07/29 03:23:31;;;;;;;14.77;13.50;;;18.10;99.90;;;;;;5000672;28;20602;-60
2023/07/29 03:26:00;;;;;;;13.67;12.47;;;18.10;99.90;;;;;;5002248;28;20550;-60
2023/07/29 03:28:30;;;;;;;14.10;12.90;;;18.00;99.90;;;;;;5004612;28;20472;-60
2023/07/29 03:30:58;;;;;;;14.27;12.97;;;18.00;99.90;;;;;;5003962;28;22698;-60
2023/07/29 03:33:27;;;;;;;14.47;13.23;;;18.00;99.90;;;;;;5004132;28;20491;-60
2023/07/29 03:35:55;;;;;;;14.00;12.80;;;17.90;99.90;;;;;;5003472;28;20471;-60
2023/07/29 03:38:24;;;;;;;15.00;13.60;;;17.90;99.90;;;;;;5002723;28;20730;-60
2023/07/29 03:40:53;;;;;;;16.27;14.97;;;17.90;99.90;;;;;;4999322;28;20492;-60
2023/07/29 03:43:21;;;;;;;15.80;14.50;;;17.90;99.90;;;;;;4998830;28;20857;-59
2023/07/29 03:45:49;;;;;;;16.13;14.77;;;17.90;99.90;;;;;;4999661;28;21783;-60
2023/07/29 03:48:17;;;;;;;14.10;12.77;;;17.90;99.90;;;;;;5002253;28;20549;-60
2023/07/29 03:50:45;;;;;;;15.10;13.70;;;17.90;99.90;;;;;;5004944;28;20495;-60
2023/07/29 03:53:13;;;;;;;14.47;13.27;;;17.90;99.90;;;;;;5006523;28;20610;-60
2023/07/29 03:55:42;;;;;;;13.60;12.40;;;18.00;99.90;;;;;;5006174;28;20508;-60
2023/07/29 03:58:10;;;;;;;14.60;13.30;;;18.00;99.90;;;;;;5009027;28;20507;-60
2023/07/29 04:00:38;;;;;;;14.73;13.53;;;18.00;99.90;;;;;;5013575;28;20515;-60
2023/07/29 04:03:06;;;;;;;13.40;12.30;;;18.00;99.90;;;;;;5005092;28;20515;-60
2023/07/29 04:05:34;;;;;;;14.10;12.90;;;18.00;99.90;;;;;;5007708;28;20548;-60
2023/07/29 04:08:02;;;;;;;13.57;12.43;;;18.00;99.90;;;;;;5007138;28;21017;-59
2023/07/29 04:10:31;;;;;;;14.83;13.47;;;18.00;99.90;;;;;;5004511;28;20611;-60
2023/07/29 04:13:01;;;;;;;13.93;12.70;;;18.00;99.90;;;;;;5003395;28;20484;-61
2023/07/29 04:15:29;;;;;;;15.47;14.07;;;18.00;99.90;;;;;;4999466;28;20865;-60
2023/07/29 04:17:57;;;;;;;13.80;12.70;;;18.00;99.90;;;;;;5004138;28;20496;-60
2023/07/29 04:20:25;;;;;;;14.50;13.30;;;18.10;99.90;;;;;;5005323;28;20486;-60
2023/07/29 04:22:53;;;;;;;16.00;14.60;;;18.10;99.90;;;;;;5003549;28;20492;-60
2023/07/29 04:25:21;;;;;;;14.60;13.40;;;18.10;99.90;;;;;;5004083;28;20551;-60
2023/07/29 04:27:49;;;;;;;15.97;14.57;;;18.10;99.90;;;;;;5004687;28;20555;-60
2023/07/29 04:30:19;;;;;;;14.50;13.30;;;18.10;99.90;;;;;;5002778;28;20488;-60
2023/07/29 04:32:48;;;;;;;14.83;13.63;;;18.10;99.90;;;;;;5002342;28;20714;-60
2023/07/29 04:35:16;;;;;;;15.40;14.00;;;18.20;99.90;;;;;;5001946;28;20579;-60
2023/07/29 04:37:44;;;;;;;24.87;20.30;;;18.10;99.90;;;;;;5002547;28;20482;-60
2023/07/29 04:40:12;;;;;;;22.27;20.40;;;18.20;99.90;;;;;;5002382;28;20562;-60
2023/07/29 04:42:40;;;;;;;25.10;22.63;;;18.20;99.90;;;;;;5000760;28;21012;-60
2023/07/29 04:45:08;;;;;;;24.60;22.20;;;18.20;99.90;;;;;;5005603;28;21075;-60
2023/07/29 04:47:38;;;;;;;25.47;22.10;;;18.20;99.90;;;;;;4998378;28;20479;-60
2023/07/29 04:50:07;;;;;;;23.17;20.77;;;18.20;99.90;;;;;;4997189;28;20517;-61
2023/07/29 04:52:35;;;;;;;23.93;21.37;;;18.20;99.90;;;;;;4998148;28;20516;-60
2023/07/29 04:55:04;;;;;;;24.93;22.43;;;18.30;99.90;;;;;;4997790;28;20576;-60
2023/07/29 04:57:32;;;;;;;26.77;24.17;;;18.30;99.90;;;;;;5001549;28;20481;-60
2023/07/29 05:00:00;;;;;;;26.67;23.97;;;18.30;99.90;;;;;;5000588;28;20563;-61
2023/07/29 05:02:28;;;;;;;25.83;23.20;;;18.30;99.90;;;;;;4999305;28;20491;-60
2023/07/29 05:04:57;;;;;;;26.40;23.90;;;18.30;99.90;;;;;;5000019;28;20471;-60
2023/07/29 05:07:25;;;;;;;25.63;23.00;;;18.30;99.90;;;;;;4997902;28;20483;-61
2023/07/29 05:09:53;;;;;;;25.93;23.40;;;18.30;99.90;;;;;;4998466;28;20496;-60
2023/07/29 05:12:21;;;;;;;24.63;22.20;;;18.30;99.90;;;;;;4999638;28;20476;-61
2023/07/29 05:14:49;;;;;;;25.57;22.73;;;18.30;99.90;;;;;;5002876;28;20470;-60
2023/07/29 05:17:17;;;;;;;26.33;23.73;;;18.40;99.90;;;;;;5002969;28;20496;-60
2023/07/29 05:19:45;;;;;;;23.97;21.57;;;18.40;99.90;;;;;;5005424;28;20495;-60
2023/07/29 05:22:14;;;;;;;26.17;23.60;;;18.40;99.90;;;;;;5004823;28;21197;-60
2023/07/29 05:24:42;;;;;;;24.97;22.40;;;18.40;99.90;;;;;;4998282;28;20603;-60
2023/07/29 05:27:10;;;;;;;26.53;23.90;;;18.40;99.90;;;;;;5001528;28;20577;-61
2023/07/29 05:29:38;;;;;;;25.77;23.07;;;18.50;99.90;;;;;;4997952;28;20492;-61
2023/07/29 05:32:07;;;;;;;26.00;23.37;;;18.50;99.90;;;;;;5003504;28;21064;-61
2023/07/29 05:34:34;;;;;;;23.57;21.17;;;18.50;99.90;;;;;;5001231;28;20468;-60
2023/07/29 05:37:02;;;;;;;25.57;23.13;;;18.50;99.90;;;;;;5000278;28;20837;-60
2023/07/29 05:39:32;;;;;;;25.53;23.13;;;18.60;99.90;;;;;;5000430;28;20563;-60
2023/07/29 05:42:02;;;;;;;23.43;21.20;;;18.70;99.90;;;;;;4995199;28;20925;-60
2023/07/29 05:44:30;;;;;;;24.60;22.30;;;18.70;99.90;;;;;;4998715;28;20562;-60
2023/07/29 05:46:58;;;;;;;23.73;21.37;;;18.80;99.90;;;;;;4997682;28;20499;-60
2023/07/29 05:49:26;;;;;;;24.97;22.33;;;18.80;99.90;;;;;;4997610;28;20582;-61
2023/07/29 05:51:54;;;;;;;26.23;23.53;;;18.80;99.90;;;;;;5002770;28;20565;-61
2023/07/29 05:54:22;;;;;;;24.83;22.40;;;18.80;99.90;;;;;;5003029;28;20907;-61
2023/07/29 05:56:51;;;;;;;23.87;21.57;;;18.80;99.90;;;;;;5000534;28;20552;-60
2023/07/29 05:59:19;;;;;;;24.23;21.83;;;18.80;99.90;;;;;;5001762;28;20497;-60
2023/07/29 06:01:47;;;;;;;24.60;22.13;;;18.90;99.90;;;;;;5000889;28;21150;-61
2023/07/29 06:04:15;;;;;;;24.47;22.20;;;18.90;99.90;;;;;;5004481;28;20498;-60
2023/07/29 06:06:43;;;;;;;25.10;22.60;;;18.80;99.90;;;;;;5006151;28;20563;-60
2023/07/29 06:09:11;;;;;;;24.73;22.30;;;18.80;99.90;;;;;;5004637;28;20546;-61
2023/07/29 06:11:39;;;;;;;21.60;19.57;;;18.80;99.90;;;;;;4999548;28;20842;-61
2023/07/29 06:14:08;;;;;;;22.10;20.10;;;18.80;99.90;;;;;;5004064;28;20620;-61
2023/07/29 06:16:36;;;;;;;23.87;21.53;;;18.80;99.90;;;;;;4999786;28;20928;-60
2023/07/29 06:19:05;;;;;;;24.70;22.30;;;18.80;99.90;;;;;;4999644;28;20465;-60
2023/07/29 06:21:33;;;;;;;21.67;19.60;;;18.90;99.90;;;;;;5002990;28;20563;-60
2023/07/29 06:24:01;;;;;;;24.53;22.13;;;19.00;99.90;;;;;;5003751;28;20490;-60
2023/07/29 06:26:29;;;;;;;23.73;21.27;;;19.00;99.90;;;;;;4997221;28;20987;-60
2023/07/29 06:28:57;;;;;;;22.40;20.33;;;19.00;99.90;;;;;;5002085;28;20574;-61
2023/07/29 06:31:26;;;;;;;21.60;19.70;;;19.00;99.90;;;;;;5020537;28;20511;-64
2023/07/29 06:33:54;;;;;;;22.93;20.80;;;19.00;99.90;;;;;;5006585;28;20484;-61
2023/07/29 06:36:21;;;;;;;23.03;20.60;;;19.00;99.90;;;;;;4999311;28;20476;-61
2023/07/29 06:38:49;;;;;;;22.60;20.60;;;19.00;99.90;;;;;;5002242;28;20479;-61
2023/07/29 06:41:17;;;;;;;23.00;20.90;;;19.00;99.90;;;;;;4996100;28;20474;-61
2023/07/29 06:43:47;;;;;;;21.87;19.77;;;19.00;99.90;;;;;;4996155;28;20516;-61
2023/07/29 06:46:15;;;;;;;22.27;20.27;;;19.00;99.90;;;;;;5004220;28;20468;-60
2023/07/29 06:48:45;;;;;;;21.90;19.90;;;19.00;99.90;;;;;;5002791;28;20468;-60
2023/07/29 06:51:12;;;;;;;21.70;19.67;;;19.00;99.90;;;;;;5003649;28;21026;-61
2023/07/29 06:53:41;;;;;;;21.30;19.30;;;19.00;99.90;;;;;;4998810;28;20502;-61
2023/07/29 06:56:09;;;;;;;22.40;20.20;;;19.00;99.90;;;;;;4999036;28;20559;-61
2023/07/29 06:58:37;;;;;;;21.47;19.60;;;19.00;99.90;;;;;;4999371;28;20503;-61
2023/07/29 07:01:05;;;;;;;24.37;21.47;;;19.10;99.90;;;;;;5004461;28;21065;-61
2023/07/29 07:03:33;;;;;;;23.10;20.90;;;19.10;99.90;;;;;;4993050;28;21154;-61
2023/07/29 07:06:03;;;;;;;25.00;22.60;;;19.10;99.90;;;;;;4985946;28;20481;-60
2023/07/29 07:08:31;;;;;;;23.97;21.77;;;19.00;99.90;;;;;;5003296;28;20475;-60
2023/07/29 07:10:59;;;;;;;24.17;21.90;;;19.00;99.90;;;;;;5002337;28;20515;-61
2023/07/29 07:13:27;;;;;;;25.83;23.30;;;19.10;99.90;;;;;;5008187;28;20506;-61
2023/07/29 07:15:56;;;;;;;26.97;24.37;;;19.10;99.90;;;;;;5005904;28;20974;-61
2023/07/29 07:18:24;;;;;;;26.33;23.90;;;19.10;99.90;;;;;;5001235;28;20503;-61
2023/07/29 07:20:52;;;;;;;25.53;23.20;;;19.10;99.90;;;;;;5001594;28;20574;-60
2023/07/29 07:23:21;;;;;;;25.43;23.03;;;19.10;99.90;;;;;;5001513;28;20933;-61
2023/07/29 07:25:49;;;;;;;24.97;22.63;;;19.10;99.90;;;;;;5010121;28;21048;-61
2023/07/29 07:28:17;;;;;;;24.97;22.67;;;19.10;99.90;;;;;;5007291;28;20605;-62
2023/07/29 07:30:45;;;;;;;23.97;21.87;;;19.20;99.90;;;;;;5002930;28;20491;-61
2023/07/29 07:33:13;;;;;;;24.13;21.83;;;19.20;99.90;;;;;;5007012;28;20488;-61
2023/07/29 07:35:42;;;;;;;23.73;21.43;;;19.20;99.90;;;;;;5009593;28;20483;-61
2023/07/29 07:38:10;;;;;;;24.20;21.70;;;19.20;99.90;;;;;;5003911;28;20850;-61
2023/07/29 07:40:39;;;;;;;23.90;21.60;;;19.20;99.90;;;;;;5004983;28;20502;-62
2023/07/29 07:43:07;;;;;;;24.80;22.53;;;19.20;99.90;;;;;;5008037;28;20596;-60
2023/07/29 07:45:35;;;;;;;24.47;22.07;;;19.20;99.90;;;;;;5004729;28;20499;-60
2023/07/29 07:48:03;;;;;;;22.73;20.47;;;19.20;99.90;;;;;;5000499;28;20630;-61
2023/07/29 07:50:32;;;;;;;25.20;22.60;;;19.20;99.90;;;;;;4999207;28;20484;-61
2023/07/29 07:53:00;;;;;;;25.17;22.70;;;19.20;99.90;;;;;;5002445;28;21067;-60
2023/07/29 07:55:28;;;;;;;25.33;22.67;;;19.20;99.90;;;;;;5003727;28;20526;-60
2023/07/29 07:57:57;;;;;;;24.50;22.17;;;19.10;99.90;;;;;;4999831;28;20513;-61
2023/07/29 08:00:25;;;;;;;25.50;22.80;;;19.10;99.90;;;;;;4992023;28;20605;-61
2023/07/29 08:02:53;;;;;;;23.77;21.40;;;19.10;99.90;;;;;;5001665;28;21004;-61
2023/07/29 08:05:21;;;;;;;24.83;22.33;;;19.10;99.90;;;;;;4999646;28;20570;-61
2023/07/29 08:07:49;;;;;;;24.83;22.30;;;19.10;99.90;;;;;;5005075;28;20480;-61
2023/07/29 08:10:17;;;;;;;23.13;20.30;;;19.10;99.90;;;;;;5002900;28;20554;-60
2023/07/29 08:12:45;;;;;;;23.30;21.00;;;19.10;99.90;;;;;;4995997;28;20494;-60
2023/07/29 08:15:15;;;;;;;23.17;21.07;;;19.20;99.90;;;;;;4985455;28;21545;-60
2023/07/29 08:17:43;;;;;;;21.47;19.47;;;19.20;99.90;;;;;;4996166;28;20846;-60
2023/07/29 08:20:11;;;;;;;24.13;21.63;;;19.20;99.90;;;;;;5001119;28;21004;-60
2023/07/29 08:22:39;;;;;;;23.43;21.23;;;19.20;99.90;;;;;;5001510;28;20957;-60
2023/07/29 08:25:08;;;;;;;23.00;20.90;;;19.30;99.90;;;;;;4997832;28;20613;-60
2023/07/29 08:27:35;;;;;;;23.97;21.77;;;19.30;99.90;;;;;;4998103;28;20522;-60
2023/07/29 08:30:04;;;;;;;21.30;19.40;;;19.40;99.90;;;;;;5000307;28;21008;-61
2023/07/29 08:32:33;;;;;;;22.63;20.40;;;19.40;99.90;;;;;;4998804;28;20484;-60
2023/07/29 08:35:01;;;;;;;19.57;17.77;;;19.50;99.90;;;;;;4999847;28;20464;-60
2023/07/29 08:37:31;;;;;;;20.77;18.87;;;19.50;99.90;;;;;;5002759;28;20973;-65
2023/07/29 08:39:59;;;;;;;21.57;19.43;;;19.50;99.90;;;;;;5001034;28;20491;-60
2023/07/29 08:42:32;;;;;;;20.53;18.73;;;19.50;99.90;;;;;;5003217;28;20542;-60
2023/07/29 08:45:07;;;;;;;20.93;18.97;;;19.60;99.90;;;;;;4999426;28;21024;-60
2023/07/29 08:47:36;;;;;;;20.77;18.87;;;19.60;99.90;;;;;;4999241;28;20500;-60
2023/07/29 08:50:06;;;;;;;21.33;19.53;;;19.60;99.90;;;;;;5003653;28;20606;-60
2023/07/29 08:52:35;;;;;;;20.37;18.47;;;19.60;99.90;;;;;;5001869;28;20562;-60
2023/07/29 08:55:03;;;;;;;19.63;17.73;;;19.60;99.90;;;;;;5003987;28;20468;-60
2023/07/29 08:57:32;;;;;;;20.70;18.80;;;19.70;99.90;;;;;;5000023;28;20586;-60
2023/07/29 09:00:01;;;;;;;21.30;19.40;;;19.80;99.90;;;;;;4990685;28;20487;-61
2023/07/29 09:02:29;;;;;;;17.97;16.47;;;19.80;99.90;;;;;;4997290;28;21032;-61
2023/07/29 09:04:59;;;;;;;20.13;18.17;;;19.90;99.90;;;;;;5013349;28;20503;-61
2023/07/29 09:07:28;;;;;;;22.07;19.97;;;19.90;99.90;;;;;;4999844;28;21190;-61
2023/07/29 09:09:55;;;;;;;18.60;17.10;;;20.00;99.90;;;;;;4998709;28;20503;-62
2023/07/29 09:12:24;;;;;;;19.30;17.70;;;20.00;99.90;;;;;;4995587;28;20502;-60
2023/07/29 09:14:53;;;;;;;19.30;17.60;;;20.20;99.90;;;;;;4992394;28;20479;-60
2023/07/29 09:17:21;;;;;;;19.60;17.90;;;20.30;99.90;;;;;;4995719;28;21094;-60
2023/07/29 09:19:50;;;;;;;19.63;17.93;;;20.40;99.90;;;;;;4996897;28;20492;-60
2023/07/29 09:22:22;;;;;;;19.97;18.17;;;20.40;99.90;;;;;;4995774;28;20524;-61
2023/07/29 09:24:51;;;;;;;20.30;18.40;;;20.50;99.90;;;;;;4995069;28;20472;-61
2023/07/29 09:27:25;;;;;;;18.87;17.10;;;20.60;99.90;;;;;;4995171;28;21079;-61
2023/07/29 09:29:53;;;;;;;17.40;15.70;;;20.70;99.90;;;;;;4997566;28;20488;-61
2023/07/29 09:32:22;;;;;;;18.10;16.50;;;20.70;99.90;;;;;;4993261;28;20489;-61
2023/07/29 09:34:51;;;;;;;17.33;15.73;;;20.70;99.90;;;;;;4994188;28;21065;-61
2023/07/29 09:37:22;;;;;;;15.97;14.57;;;20.80;99.90;;;;;;4997634;28;20990;-61
2023/07/29 09:39:50;;;;;;;17.53;16.03;;;20.80;99.90;;;;;;4997094;28;20488;-61
2023/07/29 09:42:20;;;;;;;16.70;15.30;;;20.80;99.90;;;;;;4998532;28;20591;-61
2023/07/29 09:44:50;;;;;;;17.00;15.43;;;20.80;99.90;;;;;;4998408;28;21506;-61
2023/07/29 09:47:22;;;;;;;16.27;14.80;;;20.80;99.90;;;;;;4996514;28;20472;-62
2023/07/29 09:49:50;;;;;;;16.83;15.33;;;20.80;99.90;;;;;;4996605;28;21004;-61
2023/07/29 09:52:19;;;;;;;15.50;14.20;;;20.90;99.90;;;;;;4996885;28;20571;-61
2023/07/29 09:54:49;;;;;;;16.40;14.87;;;21.00;99.90;;;;;;4999469;28;20476;-61
2023/07/29 09:57:19;;;;;;;15.87;14.33;;;21.10;99.90;;;;;;4997145;28;20949;-60
2023/07/29 09:59:55;;;;;;;16.10;14.80;;;21.20;99.90;;;;;;4991541;28;20527;-61
2023/07/29 10:02:25;;;;;;;14.60;13.50;;;21.30;99.90;;;;;;4990332;28;20575;-61
2023/07/29 10:04:53;;;;;;;12.53;11.53;;;21.40;99.90;;;;;;4992724;28;20484;-61
2023/07/29 10:07:22;;;;;;;11.40;10.50;;;21.50;99.90;;;;;;4995344;28;20464;-61
2023/07/29 10:09:53;;;;;;;10.50;9.70;;;21.60;99.90;;;;;;4992420;28;20500;-61
2023/07/29 10:12:22;;;;;;;9.40;8.70;;;21.70;99.90;;;;;;4984529;28;21266;-61
2023/07/29 10:14:51;;;;;;;8.80;8.10;;;21.90;99.90;;;;;;4989251;28;20503;-61
2023/07/29 10:17:21;;;;;;;10.87;9.97;;;21.90;99.90;;;;;;4996389;28;20479;-62
2023/07/29 10:19:49;;;;;;;9.60;8.90;;;22.00;99.90;;;;;;4996146;28;20697;-61
2023/07/29 10:22:20;;;;;;;9.10;8.47;;;22.00;99.90;;;;;;4996737;28;20993;-61
2023/07/29 10:24:52;;;;;;;9.67;8.73;;;22.10;99.90;;;;;;4993678;28;20476;-61
2023/07/29 10:27:22;;;;;;;8.60;7.90;;;22.30;99.90;;;;;;4992975;28;20701;-61
2023/07/29 10:29:51;;;;;;;9.00;8.30;;;22.40;99.90;;;;;;4989335;28;20487;-61
2023/07/29 10:32:23;;;;;;;8.87;8.17;;;22.40;99.90;;;;;;4991931;28;21173;-61
2023/07/29 10:34:51;;;;;;;9.10;7.90;;;22.40;99.90;;;;;;4984428;28;20491;-61
2023/07/29 10:37:20;;;;;;;8.07;7.47;;;22.30;99.90;;;;;;4989733;28;20473;-61
2023/07/29 10:39:55;;;;;;;8.30;7.70;;;22.20;99.90;;;;;;4994905;28;20539;-61
2023/07/29 10:42:23;;;;;;;8.20;7.60;;;22.10;99.90;;;;;;4994997;28;21074;-61
2023/07/29 10:44:53;;;;;;;8.60;7.90;;;22.00;99.90;;;;;;4997672;28;20471;-61
2023/07/29 10:47:26;;;;;;;8.37;7.73;;;22.00;99.90;;;;;;4993544;28;20496;-61
2023/07/29 10:49:56;;;;;;;7.20;6.70;;;22.00;99.90;;;;;;4993332;28;20492;-60
2023/07/29 10:52:41;;;;;;;7.17;6.67;;;22.00;99.90;;;;;;4993840;28;20647;-61
2023/07/29 10:55:32;;;;;;;7.30;6.70;;;22.10;99.90;;;;;;4997198;28;20468;-61
2023/07/29 10:58:09;;;;;;;7.33;6.83;;;22.00;99.90;;;;;;4994593;28;20594;-60
2023/07/29 11:00:37;;;;;;;7.10;6.60;;;21.90;99.90;;;;;;4996883;28;20589;-61
2023/07/29 11:03:07;;;;;;;7.67;7.07;;;21.90;99.90;;;;;;4998042;28;20495;-61
2023/07/29 11:05:50;;;;;;;7.17;6.60;;;21.80;99.90;;;;;;4995905;28;20977;-61
2023/07/29 11:08:24;;;;;;;7.30;6.60;;;21.80;99.90;;;;;;4995270;28;20543;-61
2023/07/29 11:11:06;;;;;;;8.23;7.53;;;21.70;99.90;;;;;;4989290;28;20573;-61
2023/07/29 11:13:37;;;;;;;6.93;6.43;;;21.70;99.90;;;;;;4987847;28;20582;-61
2023/07/29 11:16:06;;;;;;;7.20;6.47;;;21.70;99.90;;;;;;4993787;28;20696;-61
2023/07/29 11:18:36;;;;;;;7.17;6.63;;;21.70;99.90;;;;;;4994374;28;20925;-61
2023/07/29 11:21:05;;;;;;;6.40;5.80;;;21.70;99.90;;;;;;4992419;28;20491;-61
2023/07/29 11:23:34;;;;;;;15.40;8.40;;;21.90;99.90;;;;;;5000124;28;20492;-61
2023/07/29 11:26:05;;;;;;;26.63;10.50;;;22.00;99.90;;;;;;4996489;28;20574;-61
2023/07/29 11:28:39;;;;;;;17.33;8.73;;;22.10;99.90;;;;;;4995591;28;20468;-60
2023/07/29 11:31:07;;;;;;;9.73;6.90;;;22.10;99.90;;;;;;4994639;28;20504;-61
2023/07/29 11:33:35;;;;;;;16.10;8.80;;;22.20;99.90;;;;;;4991528;28;20929;-61
2023/07/29 11:36:03;;;;;;;10.47;6.00;;;22.20;99.90;;;;;;4998660;28;20496;-61
2023/07/29 11:38:36;;;;;;;6.10;5.13;;;22.30;99.90;;;;;;5004916;28;20932;-61
2023/07/29 11:41:07;;;;;;;10.23;7.10;;;22.50;99.90;;;;;;5000573;28;20495;-61
2023/07/29 11:43:36;;;;;;;5.07;4.57;;;22.70;99.90;;;;;;4996704;28;20587;-62
2023/07/29 11:46:05;;;;;;;4.50;4.10;;;22.90;99.90;;;;;;4994091;28;20570;-61
2023/07/29 11:48:34;;;;;;;5.47;3.90;;;23.00;99.90;;;;;;4995165;28;20482;-62
2023/07/29 11:51:04;;;;;;;4.77;4.37;;;23.20;99.90;;;;;;4989138;28;20518;-62
2023/07/29 11:53:32;;;;;;;4.80;4.33;;;23.30;99.90;;;;;;4991489;28;20519;-62
2023/07/29 11:56:00;;;;;;;4.60;4.20;;;23.40;99.90;;;;;;5003225;28;20485;-62
2023/07/29 11:58:30;;;;;;;4.60;4.10;;;23.60;99.90;;;;;;5005054;28;20460;-62
2023/07/29 12:00:58;;;;;;;4.70;4.03;;;23.70;99.90;;;;;;4997680;28;20579;-62
2023/07/29 12:03:27;;;;;;;4.40;3.80;;;23.80;99.90;;;;;;4999163;28;20888;-61
2023/07/29 12:05:55;;;;;;;4.50;4.20;;;24.00;99.90;;;;;;5003101;28;20510;-61
2023/07/29 12:08:24;;;;;;;4.10;3.80;;;24.20;99.90;;;;;;4998080;28;20601;-62
2023/07/29 12:10:52;;;;;;;4.63;4.00;;;24.40;99.90;;;;;;5001013;28;20598;-62
2023/07/29 12:13:24;;;;;;;3.60;3.30;;;24.40;99.90;;;;;;5001957;28;21109;-62
2023/07/29 12:16:01;;;;;;;3.77;3.43;;;24.50;99.90;;;;;;5003560;28;20997;-62
2023/07/29 12:18:31;;;;;;;3.70;3.40;;;24.60;99.90;;;;;;4998312;28;20495;-62
2023/07/29 12:21:00;;;;;;;4.03;3.00;;;24.60;99.90;;;;;;4994366;28;20868;-61
2023/07/29 12:23:28;;;;;;;3.50;3.27;;;24.70;99.90;;;;;;5002791;28;20546;-62
2023/07/29 12:25:58;;;;;;;2.80;2.70;;;24.80;99.90;;;;;;4999535;28;20504;-62
2023/07/29 12:28:27;;;;;;;3.07;2.90;;;24.90;99.90;;;;;;4995814;28;20546;-62
2023/07/29 12:30:56;;;;;;;3.20;3.00;;;25.00;99.90;;;;;;5003680;28;20953;-62
2023/07/29 12:33:31;;;;;;;2.77;2.57;;;25.10;99.90;;;;;;5004850;28;20499;-62
2023/07/29 12:36:00;;;;;;;3.00;2.80;;;25.20;99.90;;;;;;5004778;28;20467;-62
2023/07/29 12:38:28;;;;;;;2.97;2.77;;;25.40;99.90;;;;;;5000778;28;21191;-62
2023/07/29 12:40:56;;;;;;;3.13;2.93;;;25.40;99.90;;;;;;5001813;28;20949;-62
2023/07/29 12:43:25;;;;;;;2.77;2.57;;;25.50;99.90;;;;;;5002053;28;20496;-62
2023/07/29 12:45:53;;;;;;;3.33;3.10;;;25.60;99.90;;;;;;5003500;28;20472;-62